createdAt,value
2019-03-01T00:01:01.862Z,98546.14
2019-03-01T00:03:33.382Z,98546.02
2019-03-01T00:06:22.116Z,98543.19
2019-03-01T00:09:21.412Z,98542.19
2019-03-01T00:12:12.007Z,98539.83
2019-03-01T00:15:10.972Z,98540.10
2019-03-01T00:17:44.897Z,98536.36
2019-03-01T00:20:37.000Z,98545.12
2019-03-01T00:23:16.183Z,98543.63
2019-03-01T00:26:18.623Z,98546.27
2019-03-01T00:29:04.311Z,98546.77
2019-03-01T00:31:43.982Z,98552.90
2019-03-01T00:34:26.784Z,98539.30
2019-03-01T00:37:09.520Z,98553.27
2019-03-01T00:39:45.987Z,98545.05
2019-03-01T00:42:48.873Z,98548.78
2019-03-01T00:45:19.608Z,98553.39
2019-03-01T00:47:50.260Z,98547.81
2019-03-01T00:50:20.238Z,98546.72
2019-03-01T00:52:51.682Z,98546.59
2019-03-01T00:55:22.540Z,98541.98
2019-03-01T00:57:53.293Z,98559.05
2019-03-01T01:00:36.219Z,98559.53
2019-03-01T01:03:07.075Z,98566.90
2019-03-01T01:05:37.979Z,98567.00
2019-03-01T01:08:08.785Z,98567.52
2019-03-01T01:10:39.438Z,98561.30
2019-03-01T01:13:10.295Z,98559.80
2019-03-01T01:15:41.047Z,98554.05
2019-03-01T01:18:11.680Z,98558.16
2019-03-01T01:20:41.660Z,98560.42
2019-03-01T01:23:12.186Z,98559.80
2019-03-01T01:25:42.941Z,98548.97
2019-03-01T01:28:13.573Z,98563.03
2019-03-01T01:30:44.328Z,98557.06
2019-03-01T01:33:15.198Z,98561.92
2019-03-01T01:35:45.957Z,98572.00
2019-03-01T01:38:16.604Z,98559.30
2019-03-01T01:40:47.467Z,98567.52
2019-03-01T01:43:18.216Z,98567.89
2019-03-01T01:45:48.969Z,98573.13
2019-03-01T01:48:19.826Z,98580.25
2019-03-01T01:50:50.563Z,98584.34
2019-03-01T01:53:22.340Z,98570.02
2019-03-01T01:55:53.216Z,98589.82
2019-03-01T01:58:23.866Z,98589.70
2019-03-01T02:00:54.602Z,98584.21
2019-03-01T02:03:25.473Z,98588.84
2019-03-01T02:05:56.023Z,98591.59
2019-03-01T02:08:25.984Z,98590.94
2019-03-01T02:10:56.391Z,98603.52
2019-03-01T02:13:26.469Z,98599.30
2019-03-01T02:15:56.992Z,98597.56
2019-03-01T02:18:27.748Z,98600.05
2019-03-01T02:20:58.505Z,98610.02
2019-03-01T02:23:29.036Z,98611.04
2019-03-01T02:25:59.892Z,98608.92
2019-03-01T02:28:30.647Z,98602.84
2019-03-01T02:31:04.486Z,98602.23
2019-03-01T02:33:35.139Z,98611.58
2019-03-01T02:36:05.975Z,98608.58
2019-03-01T02:38:36.746Z,98613.19
2019-03-01T02:41:07.501Z,98618.17
2019-03-01T02:43:38.047Z,98626.88
2019-03-01T02:46:08.904Z,98623.66
2019-03-01T02:48:39.762Z,98627.27
2019-03-01T02:51:10.502Z,98628.75
2019-03-01T02:53:42.088Z,98634.10
2019-03-01T02:56:12.636Z,98639.45
2019-03-01T02:58:43.168Z,98635.34
2019-03-01T03:01:14.058Z,98636.44
2019-03-01T03:03:44.898Z,98643.40
2019-03-01T03:06:23.221Z,98632.34
2019-03-01T03:08:53.873Z,98635.47
2019-03-01T03:11:24.717Z,98634.31
2019-03-01T03:13:55.364Z,98629.97
2019-03-01T03:16:26.424Z,98629.09
2019-03-01T03:18:56.973Z,98631.84
2019-03-01T03:21:27.851Z,98632.09
2019-03-01T03:23:58.483Z,98627.73
2019-03-01T03:26:29.254Z,98634.70
2019-03-01T03:29:00.113Z,98623.89
2019-03-01T03:31:30.977Z,98634.36
2019-03-01T03:34:01.600Z,98626.77
2019-03-01T03:36:31.681Z,98631.36
2019-03-01T03:39:02.204Z,98628.27
2019-03-01T03:41:32.854Z,98630.48
2019-03-01T03:44:03.725Z,98624.78
2019-03-01T03:46:34.575Z,98621.16
2019-03-01T03:49:05.322Z,98616.92
2019-03-01T03:51:35.956Z,98623.16
2019-03-01T03:54:07.734Z,98628.50
2019-03-01T03:56:38.689Z,98628.27
2019-03-01T03:59:09.466Z,98635.11
2019-03-01T04:01:40.226Z,98636.95
2019-03-01T04:04:10.967Z,98632.84
2019-03-01T04:06:41.827Z,98633.94
2019-03-01T04:09:12.477Z,98633.67
2019-03-01T04:11:43.231Z,98625.34
2019-03-01T04:14:13.880Z,98632.03
2019-03-01T04:16:44.723Z,98636.65
2019-03-01T04:19:15.501Z,98635.98
2019-03-01T04:21:46.233Z,98633.84
2019-03-01T04:24:17.104Z,98632.74
2019-03-01T04:26:47.958Z,98631.38
2019-03-01T04:29:18.305Z,98641.83
2019-03-01T04:31:49.058Z,98630.63
2019-03-01T04:34:19.708Z,98632.34
2019-03-01T04:36:50.552Z,98633.08
2019-03-01T04:39:21.423Z,98633.08
2019-03-01T04:41:52.175Z,98630.13
2019-03-01T04:44:22.827Z,98629.13
2019-03-01T04:46:53.665Z,98624.26
2019-03-01T04:49:24.316Z,98631.71
2019-03-01T04:51:55.086Z,98634.73
2019-03-01T04:54:26.660Z,98635.48
2019-03-01T04:56:57.526Z,98628.52
2019-03-01T04:59:28.371Z,98640.08
2019-03-01T05:01:59.230Z,98638.64
2019-03-01T05:04:29.982Z,98633.39
2019-03-01T05:07:00.616Z,98638.50
2019-03-01T05:09:31.375Z,98631.82
2019-03-01T05:12:02.226Z,98642.77
2019-03-01T05:14:32.998Z,98639.55
2019-03-01T05:17:03.655Z,98638.31
2019-03-01T05:19:34.386Z,98625.12
2019-03-01T05:22:05.259Z,98641.80
2019-03-01T05:24:35.895Z,98647.38
2019-03-01T05:27:05.864Z,98655.86
2019-03-01T05:29:36.394Z,98655.23
2019-03-01T05:32:07.031Z,98653.13
2019-03-01T05:34:37.011Z,98655.02
2019-03-01T05:37:07.536Z,98654.41
2019-03-01T05:39:38.183Z,98651.79
2019-03-01T05:42:09.041Z,98657.27
2019-03-01T05:44:39.880Z,98661.61
2019-03-01T05:47:10.531Z,98664.34
2019-03-01T05:49:40.514Z,98667.08
2019-03-01T05:52:11.033Z,98668.35
2019-03-01T05:54:42.693Z,98673.31
2019-03-01T05:57:13.463Z,98688.63
2019-03-01T05:59:44.115Z,98680.91
2019-03-01T06:02:26.918Z,98691.11
2019-03-01T06:04:59.223Z,98688.27
2019-03-01T06:07:49.513Z,98694.36
2019-03-01T06:10:26.283Z,98707.70
2019-03-01T06:13:16.569Z,98662.11
2019-03-01T06:16:11.055Z,98701.20
2019-03-01T06:19:01.053Z,98714.77
2019-03-01T06:21:55.943Z,98723.25
2019-03-01T06:24:46.027Z,98713.30
2019-03-01T06:27:51.660Z,98721.51
2019-03-01T06:30:51.656Z,98729.60
2019-03-01T06:33:39.684Z,98725.98
2019-03-01T06:36:27.824Z,98732.34
2019-03-01T06:39:17.312Z,98735.84
2019-03-01T06:41:53.569Z,98736.06
2019-03-01T06:44:30.519Z,98731.83
2019-03-01T06:47:25.376Z,98725.60
2019-03-01T06:50:03.282Z,98743.53
2019-03-01T06:52:33.934Z,98729.45
2019-03-01T06:55:07.838Z,98742.42
2019-03-01T06:57:38.498Z,98740.80
2019-03-01T07:00:11.640Z,98747.28
2019-03-01T07:02:43.497Z,98753.25
2019-03-01T07:05:14.043Z,98751.01
2019-03-01T07:07:43.997Z,98741.94
2019-03-01T07:10:14.411Z,98753.64
2019-03-01T07:12:45.165Z,98750.52
2019-03-01T07:15:15.835Z,98759.37
2019-03-01T07:17:46.691Z,98757.75
2019-03-01T07:20:17.218Z,98753.14
2019-03-01T07:22:47.299Z,98755.38
2019-03-01T07:25:17.703Z,98750.13
2019-03-01T07:27:47.789Z,98759.84
2019-03-01T07:30:18.292Z,98756.86
2019-03-01T07:32:48.163Z,98757.94
2019-03-01T07:35:18.574Z,98753.44
2019-03-01T07:37:48.655Z,98763.70
2019-03-01T07:40:19.083Z,98756.86
2019-03-01T07:42:48.935Z,98767.75
2019-03-01T07:45:19.460Z,98767.88
2019-03-01T07:47:50.009Z,98761.67
2019-03-01T07:50:20.563Z,98766.90
2019-03-01T07:52:51.090Z,98777.12
2019-03-01T07:55:24.906Z,98775.73
2019-03-01T07:57:54.643Z,98775.42
2019-03-01T08:00:25.211Z,98769.95
2019-03-01T08:02:55.875Z,98776.88
2019-03-01T08:05:26.515Z,98786.23
2019-03-01T08:08:02.607Z,98791.47
2019-03-01T08:10:29.558Z,98788.64
2019-03-01T08:13:00.108Z,98797.49
2019-03-01T08:15:30.597Z,98816.55
2019-03-01T08:18:04.622Z,98805.42
2019-03-01T08:20:33.839Z,98803.81
2019-03-01T08:23:04.553Z,98804.16
2019-03-01T08:25:35.304Z,98817.55
2019-03-01T08:28:05.266Z,98797.54
2019-03-01T08:30:35.806Z,98813.23
2019-03-01T08:33:07.589Z,98808.95
2019-03-01T08:35:37.604Z,98811.26
2019-03-01T08:38:14.802Z,98795.66
2019-03-01T08:40:46.672Z,98801.28
2019-03-01T08:43:17.929Z,98807.41
2019-03-01T08:45:47.911Z,98821.58
2019-03-01T08:48:18.314Z,98832.20
2019-03-01T08:50:48.283Z,98824.23
2019-03-01T08:53:18.693Z,98834.27
2019-03-01T08:55:52.096Z,98835.86
2019-03-01T08:58:22.472Z,98826.38
2019-03-01T09:00:59.348Z,98842.77
2019-03-01T09:03:27.233Z,98843.93
2019-03-01T09:05:57.799Z,98849.38
2019-03-01T09:08:27.877Z,98855.48
2019-03-01T09:10:58.296Z,98858.78
2019-03-01T09:13:28.144Z,98860.06
2019-03-01T09:15:59.033Z,98855.29
2019-03-01T09:18:46.641Z,98851.20
2019-03-01T09:21:17.148Z,98858.06
2019-03-01T09:23:47.915Z,98854.74
2019-03-01T09:26:19.989Z,98859.42
2019-03-01T09:28:51.034Z,98866.55
2019-03-01T09:31:21.014Z,98867.80
2019-03-01T09:33:53.765Z,98864.98
2019-03-01T09:36:27.899Z,98861.56
2019-03-01T09:38:58.462Z,98860.91
2019-03-01T09:41:29.011Z,98872.75
2019-03-01T09:44:02.718Z,98870.25
2019-03-01T09:46:31.528Z,98871.88
2019-03-01T09:49:01.612Z,98876.95
2019-03-01T09:51:32.115Z,98862.36
2019-03-01T09:54:02.682Z,98861.36
2019-03-01T09:56:32.738Z,98872.40
2019-03-01T09:59:03.369Z,98874.77
2019-03-01T10:01:33.426Z,98860.94
2019-03-01T10:04:03.738Z,98867.85
2019-03-01T10:06:38.056Z,98854.26
2019-03-01T10:09:09.440Z,98886.44
2019-03-01T10:11:39.986Z,98870.05
2019-03-01T10:14:09.861Z,98883.14
2019-03-01T10:16:40.287Z,98890.75
2019-03-01T10:19:10.135Z,98872.22
2019-03-01T10:21:40.547Z,98863.64
2019-03-01T10:24:11.200Z,98891.55
2019-03-01T10:26:49.453Z,98893.05
2019-03-01T10:29:21.706Z,98887.64
2019-03-01T10:31:52.544Z,98870.81
2019-03-01T10:34:23.127Z,98896.03
2019-03-01T10:36:53.783Z,98888.53
2019-03-01T10:39:24.433Z,98882.45
2019-03-01T10:41:54.964Z,98899.41
2019-03-01T10:44:24.945Z,98896.06
2019-03-01T10:46:55.467Z,98887.95
2019-03-01T10:49:26.001Z,98903.06
2019-03-01T10:51:55.868Z,98916.16
2019-03-01T10:54:27.710Z,98923.36
2019-03-01T10:56:59.301Z,98925.83
2019-03-01T10:59:30.055Z,98918.21
2019-03-01T11:02:00.588Z,98931.52
2019-03-01T11:04:30.558Z,98918.82
2019-03-01T11:07:01.090Z,98940.01
2019-03-01T11:09:31.641Z,98934.53
2019-03-01T11:12:01.490Z,98942.49
2019-03-01T11:14:32.019Z,98949.24
2019-03-01T11:17:02.551Z,98942.48
2019-03-01T11:19:32.586Z,98941.99
2019-03-01T11:22:03.153Z,98911.11
2019-03-01T11:24:33.689Z,98942.28
2019-03-01T11:27:12.599Z,98928.35
2019-03-01T11:29:35.627Z,98940.31
2019-03-01T11:32:06.155Z,98938.31
2019-03-01T11:34:36.320Z,98939.83
2019-03-01T11:37:06.948Z,98939.92
2019-03-01T11:39:36.928Z,98952.56
2019-03-01T11:42:07.432Z,98948.19
2019-03-01T11:44:37.517Z,98934.20
2019-03-01T11:47:07.936Z,98972.14
2019-03-01T11:49:37.888Z,98961.66
2019-03-01T11:52:08.300Z,98975.62
2019-03-01T11:54:38.972Z,98985.52
2019-03-01T11:57:08.993Z,98988.29
2019-03-01T11:59:39.358Z,98977.87
2019-03-01T12:02:10.107Z,98977.12
2019-03-01T12:04:40.063Z,98975.98
2019-03-01T12:07:10.591Z,98985.20
2019-03-01T12:09:40.437Z,98986.17
2019-03-01T12:12:10.548Z,98994.52
2019-03-01T12:14:40.532Z,98996.03
2019-03-01T12:17:10.949Z,99016.46
2019-03-01T12:19:40.912Z,99008.34
2019-03-01T12:22:17.179Z,99014.80
2019-03-01T12:24:43.313Z,99032.09
2019-03-01T12:27:13.172Z,99029.41
2019-03-01T12:29:43.694Z,99032.57
2019-03-01T12:32:13.650Z,99029.43
2019-03-01T12:34:44.063Z,99025.94
2019-03-01T12:37:14.727Z,99035.78
2019-03-01T12:39:44.693Z,99031.94
2019-03-01T12:42:15.215Z,99049.42
2019-03-01T12:44:45.178Z,99040.69
2019-03-01T12:47:15.580Z,99051.94
2019-03-01T12:49:46.129Z,99054.26
2019-03-01T12:52:16.213Z,99046.88
2019-03-01T12:54:46.617Z,99053.21
2019-03-01T12:57:17.411Z,99068.88
2019-03-01T12:59:47.348Z,99070.00
2019-03-01T13:02:17.977Z,99058.98
2019-03-01T13:04:49.911Z,99071.44
2019-03-01T13:07:19.870Z,99075.95
2019-03-01T13:09:49.953Z,99085.30
2019-03-01T13:12:22.354Z,99082.36
2019-03-01T13:14:52.663Z,99090.52
2019-03-01T13:17:22.727Z,99103.87
2019-03-01T13:19:53.259Z,99081.16
2019-03-01T13:22:24.760Z,99079.45
2019-03-01T13:24:58.684Z,99107.78
2019-03-01T13:27:29.950Z,99099.05
2019-03-01T13:30:02.233Z,99106.38
2019-03-01T13:32:33.605Z,99111.23
2019-03-01T13:35:07.141Z,99110.52
2019-03-01T13:37:37.616Z,99110.48
2019-03-01T13:40:09.024Z,99113.02
2019-03-01T13:42:39.449Z,99116.58
2019-03-01T13:45:11.938Z,99115.34
2019-03-01T13:47:44.016Z,99120.34
2019-03-01T13:50:19.443Z,99114.35
2019-03-01T13:52:50.539Z,99117.84
2019-03-01T13:55:23.756Z,99127.06
2019-03-01T13:57:54.501Z,99141.78
2019-03-01T14:00:25.485Z,99132.70
2019-03-01T14:02:56.016Z,99137.98
2019-03-01T14:05:26.749Z,99138.22
2019-03-01T14:07:57.414Z,99141.09
2019-03-01T14:10:29.502Z,99140.97
2019-03-01T14:12:59.751Z,99146.06
2019-03-01T14:15:30.494Z,99162.13
2019-03-01T14:18:02.005Z,99161.03
2019-03-01T14:20:32.516Z,99168.98
2019-03-01T14:23:03.267Z,99179.80
2019-03-01T14:25:34.021Z,99187.64
2019-03-01T14:28:05.146Z,99169.42
2019-03-01T14:30:36.348Z,99184.25
2019-03-01T14:33:06.200Z,99185.58
2019-03-01T14:35:36.740Z,99189.27
2019-03-01T14:38:08.299Z,99188.20
2019-03-01T14:40:38.733Z,99202.47
2019-03-01T14:43:09.504Z,99207.28
2019-03-01T14:45:41.777Z,99210.59
2019-03-01T14:48:12.239Z,99209.95
2019-03-01T14:50:42.099Z,99221.38
2019-03-01T14:53:12.402Z,99220.16
2019-03-01T14:55:44.110Z,99226.77
2019-03-01T14:58:24.459Z,99226.63
2019-03-01T15:01:13.416Z,99238.48
2019-03-01T15:03:44.051Z,99236.91
2019-03-01T15:06:15.544Z,99243.23
2019-03-01T15:08:46.191Z,99250.34
2019-03-01T15:11:16.946Z,99252.42
2019-03-01T15:13:47.582Z,99245.02
2019-03-01T15:16:17.569Z,99255.41
2019-03-01T15:18:48.086Z,99261.45
2019-03-01T15:21:18.819Z,99260.91
2019-03-01T15:23:49.470Z,99265.68
2019-03-01T15:26:23.066Z,99250.55
2019-03-01T15:28:55.472Z,99263.48
2019-03-01T15:31:26.047Z,99270.31
2019-03-01T15:33:56.698Z,99280.18
2019-03-01T15:36:27.452Z,99274.42
2019-03-01T15:38:57.980Z,99273.20
2019-03-01T15:41:28.064Z,99290.78
2019-03-01T15:43:58.570Z,99300.44
2019-03-01T15:46:31.180Z,99306.81
2019-03-01T15:49:02.775Z,99316.11
2019-03-01T15:51:34.661Z,99317.80
2019-03-01T15:54:05.830Z,99328.36
2019-03-01T15:56:39.483Z,99333.97
2019-03-01T15:59:10.446Z,99323.28
2019-03-01T16:01:43.763Z,99341.56
2019-03-01T16:04:14.480Z,99338.47
2019-03-01T16:06:44.967Z,99339.02
2019-03-01T16:09:14.836Z,99347.23
2019-03-01T16:11:45.061Z,99352.30
2019-03-01T16:14:15.697Z,99365.41
2019-03-01T16:16:49.169Z,99353.92
2019-03-01T16:19:18.328Z,99362.02
2019-03-01T16:21:48.308Z,99375.56
2019-03-01T16:24:18.812Z,99373.63
2019-03-01T16:26:48.887Z,99378.02
2019-03-01T16:29:19.518Z,99377.94
2019-03-01T16:31:50.158Z,99376.81
2019-03-01T16:34:20.024Z,99390.41
2019-03-01T16:36:52.070Z,99385.47
2019-03-01T16:39:23.822Z,99393.67
2019-03-01T16:41:54.722Z,99403.69
2019-03-01T16:44:24.574Z,99411.75
2019-03-01T16:46:55.209Z,99408.58
2019-03-01T16:49:27.181Z,99407.06
2019-03-01T16:51:57.227Z,99403.23
2019-03-01T16:54:27.878Z,99407.36
2019-03-01T16:56:57.739Z,99395.12
2019-03-01T16:59:28.566Z,99401.40
2019-03-01T17:01:59.017Z,99403.38
2019-03-01T17:04:29.766Z,99403.52
2019-03-01T17:07:00.523Z,99406.25
2019-03-01T17:09:31.173Z,99405.13
2019-03-01T17:12:01.824Z,99403.32
2019-03-01T17:14:34.920Z,99402.85
2019-03-01T17:17:03.743Z,99402.65
2019-03-01T17:19:34.292Z,99405.53
2019-03-01T17:22:04.356Z,99408.55
2019-03-01T17:24:34.779Z,99408.41
2019-03-01T17:27:05.756Z,99390.43
2019-03-01T17:29:39.169Z,99405.30
2019-03-01T17:32:08.452Z,99397.49
2019-03-01T17:34:38.323Z,99411.31
2019-03-01T17:37:08.954Z,99409.95
2019-03-01T17:39:39.711Z,99416.00
2019-03-01T17:42:09.561Z,99422.16
2019-03-01T17:44:41.294Z,99410.93
2019-03-01T17:47:12.372Z,99426.33
2019-03-01T17:49:42.727Z,99431.04
2019-03-01T17:52:13.275Z,99436.08
2019-03-01T17:54:43.926Z,99420.85
2019-03-01T17:57:13.991Z,99402.44
2019-03-01T17:59:48.299Z,99428.30
2019-03-01T18:02:19.238Z,99438.20
2019-03-01T18:04:49.993Z,99434.56
2019-03-01T18:07:23.730Z,99447.72
2019-03-01T18:09:55.304Z,99433.62
2019-03-01T18:12:25.034Z,99443.06
2019-03-01T18:14:56.605Z,99453.56
2019-03-01T18:17:27.257Z,99450.42
2019-03-01T18:19:58.734Z,99450.42
2019-03-01T18:22:29.177Z,99457.11
2019-03-01T18:25:00.350Z,99456.21
2019-03-01T18:27:30.785Z,99463.55
2019-03-01T18:30:00.745Z,99459.91
2019-03-01T18:32:31.150Z,99455.95
2019-03-01T18:35:02.147Z,99453.83
2019-03-01T18:37:35.744Z,99455.34
2019-03-01T18:40:13.427Z,99456.97
2019-03-01T18:42:42.657Z,99463.86
2019-03-01T18:45:17.830Z,99468.37
2019-03-01T18:47:48.167Z,99456.82
2019-03-01T18:50:32.135Z,99466.13
2019-03-01T18:53:04.150Z,99474.34
2019-03-01T18:55:34.952Z,99468.52
2019-03-01T18:58:05.016Z,99467.91
2019-03-01T19:00:46.386Z,99475.97
2019-03-01T19:03:17.121Z,99458.80
2019-03-01T19:05:50.658Z,99454.67
2019-03-01T19:08:20.996Z,99453.01
2019-03-01T19:10:54.167Z,99456.94
2019-03-01T19:13:34.330Z,99454.38
2019-03-01T19:16:13.057Z,99454.06
2019-03-01T19:18:44.554Z,99472.77
2019-03-01T19:21:17.306Z,99469.42
2019-03-01T19:23:47.509Z,99472.30
2019-03-01T19:26:18.043Z,99465.93
2019-03-01T19:28:48.012Z,99489.38
2019-03-01T19:31:21.612Z,99491.82
2019-03-01T19:33:50.508Z,99488.16
2019-03-01T19:36:20.486Z,99483.77
2019-03-01T19:38:50.993Z,99493.95
2019-03-01T19:41:22.879Z,99499.47
2019-03-01T19:43:57.415Z,99499.48
2019-03-01T19:46:26.610Z,99499.02
2019-03-01T19:48:57.785Z,99499.31
2019-03-01T19:51:28.466Z,99492.95
2019-03-01T19:54:01.054Z,99490.97
2019-03-01T19:56:30.974Z,99500.83
2019-03-01T19:59:01.522Z,99498.56
2019-03-01T20:01:33.012Z,99503.56
2019-03-01T20:04:03.868Z,99493.38
2019-03-01T20:06:33.728Z,99494.75
2019-03-01T20:09:05.341Z,99502.20
2019-03-01T20:11:35.720Z,99501.70
2019-03-01T20:14:06.354Z,99510.06
2019-03-01T20:16:36.923Z,99504.94
2019-03-01T20:19:07.471Z,99512.48
2019-03-01T20:21:37.919Z,99510.55
2019-03-01T20:24:07.982Z,99505.40
2019-03-01T20:26:38.402Z,99513.41
2019-03-01T20:29:08.364Z,99512.13
2019-03-01T20:31:40.531Z,99503.73
2019-03-01T20:34:10.850Z,99515.28
2019-03-01T20:36:41.803Z,99509.41
2019-03-01T20:39:15.643Z,99517.31
2019-03-01T20:41:46.349Z,99519.44
2019-03-01T20:44:18.623Z,99532.19
2019-03-01T20:46:48.628Z,99533.56
2019-03-01T20:49:18.588Z,99531.94
2019-03-01T20:51:49.109Z,99548.34
2019-03-01T20:54:21.950Z,99547.28
2019-03-01T20:56:51.591Z,99548.84
2019-03-01T20:59:23.010Z,99537.86
2019-03-01T21:01:54.584Z,99537.57
2019-03-01T21:04:25.335Z,99540.34
2019-03-01T21:06:55.883Z,99547.03
2019-03-01T21:09:26.051Z,99523.95
2019-03-01T21:11:57.827Z,99557.06
2019-03-01T21:14:28.645Z,99543.88
2019-03-01T21:16:59.310Z,99547.38
2019-03-01T21:19:29.274Z,99547.03
2019-03-01T21:22:01.613Z,99552.08
2019-03-01T21:24:32.178Z,99559.08
2019-03-01T21:27:02.631Z,99561.50
2019-03-01T21:29:32.598Z,99554.38
2019-03-01T21:32:03.013Z,99547.88
2019-03-01T21:34:34.881Z,99551.22
2019-03-01T21:37:05.529Z,99548.50
2019-03-01T21:39:35.510Z,99546.11
2019-03-01T21:42:05.927Z,99552.64
2019-03-01T21:44:35.788Z,99546.61
2019-03-01T21:47:06.988Z,99558.75
2019-03-01T21:49:38.291Z,99563.66
2019-03-01T21:52:08.143Z,99559.41
2019-03-01T21:54:38.678Z,99555.95
2019-03-01T21:57:08.526Z,99554.28
2019-03-01T21:59:39.055Z,99565.38
2019-03-01T22:02:09.229Z,99576.06
2019-03-01T22:04:39.732Z,99574.82
2019-03-01T22:07:09.812Z,99578.80
2019-03-01T22:09:40.332Z,99584.27
2019-03-01T22:12:10.297Z,99588.84
2019-03-01T22:14:40.821Z,99591.58
2019-03-01T22:17:13.520Z,99593.09
2019-03-01T22:19:42.532Z,99599.31
2019-03-01T22:22:13.076Z,99586.45
2019-03-01T22:24:42.941Z,99596.16
2019-03-01T22:27:13.464Z,99591.61
2019-03-01T22:29:47.166Z,99590.13
2019-03-01T22:32:16.000Z,99583.93
2019-03-01T22:34:45.855Z,99587.09
2019-03-01T22:37:16.377Z,99582.08
2019-03-01T22:39:48.426Z,99582.56
2019-03-01T22:42:19.202Z,99584.84
2019-03-01T22:44:49.286Z,99581.48
2019-03-01T22:47:19.804Z,99585.57
2019-03-01T22:49:49.764Z,99582.99
2019-03-01T22:52:20.270Z,99588.30
2019-03-01T22:54:50.925Z,99585.57
2019-03-01T22:57:22.654Z,99592.85
2019-03-01T22:59:52.960Z,99592.25
2019-03-01T23:02:24.614Z,99592.25
2019-03-01T23:04:55.491Z,99597.56
2019-03-01T23:07:26.585Z,99587.09
2019-03-01T23:09:57.918Z,99596.03
2019-03-01T23:12:28.671Z,99590.91
2019-03-01T23:15:02.935Z,99603.63
2019-03-01T23:17:31.611Z,99593.61
2019-03-01T23:20:02.366Z,99599.38
2019-03-01T23:22:33.224Z,99600.92
2019-03-01T23:25:04.266Z,99595.91
2019-03-01T23:27:34.609Z,99600.80
2019-03-01T23:30:07.100Z,99602.47
2019-03-01T23:32:37.651Z,99596.70
2019-03-01T23:35:08.524Z,99590.36
2019-03-01T23:37:39.903Z,99594.60
2019-03-01T23:40:10.321Z,99599.17
2019-03-01T23:42:40.302Z,99605.09
2019-03-01T23:45:13.801Z,99600.56
2019-03-01T23:47:43.828Z,99600.86
2019-03-01T23:50:13.690Z,99607.69
2019-03-01T23:52:44.247Z,99606.78
2019-03-01T23:55:15.609Z,99606.32
2019-03-01T23:57:46.230Z,99608.14
